WMKP

Details ICAO WMKP (PEN)
Name Penang Intl
Region Malaysia (Peninsular Malaysia)
Timezone Asia/Kuala_Lumpur (UTC+8.0)
Plans Departing 165
Arriving 192
Stats Elevation 11 ft / 3 m (AMSL)
Location 5.297141° 100.276865°
Runways 1
Magnetic Variation 0.206° W
Sunrise 2017-12-17 23:22:16 UTC / 2017-12-18 07:22:16 Local
Sunset 2017-12-18 11:11:11 UTC / 2017-12-18 19:11:11 Local
Advertisement - Login to hide

Runways

ID Width Length Bearing (true) Bearing (mag) Surface Threshold Offset Overrun Length
04 150 ft / 46 m 11,042 ft / 3,366 m 42.02° 42.23° Asphalt 0 ft / 0 m 205 ft / 62 m
22 150 ft / 46 m 11,042 ft / 3,366 m 222.02° 222.23° Asphalt 0 ft / 0 m 205 ft / 62 m

Approach Navaids

Runway Type Ident Frequency Range Bearing (true) Bearing (mag) Slope Elevation
04 Localiser IPG 109.90 MHz 18 nm / 33 km 42.88° 43.09° - 12 ft / 4 m (AMSL)
04 Glidescope IPG 109.90 MHz 10 nm / 19 km 42.02° 42.22° 3.00° 11 ft / 3 m (AMSL)
04 DME IPG 109.90 MHz 18 nm / 33 km - - - 11 ft / 3 m (AMSL)

Map

Weather


0- 5 10 15 20 25 30 35+ Temperature / ° C

Clouds and Precipitation
Forecast for 2017-12-18 00:00 UTC. Updated 35 minutes ago

Ground ~20,000 ft ~40,000 ft Winds

METAR

WMKP 171930Z 03005KT 360V060 8000 FEW025 SCT140 BKN270 27/23 Q1010 NOSIG

TAF

Not found

Frequencies

Recorded 126.40 MHz ATIS
Tower 121.10 MHz TWR
Ground 121.60 MHz GND
Warning: Do not use this data for real-world aviation or navigation. No guarantee of current accuracy is given.